Portsmouth, NH (03803)

4:54 PM EDT on April 28, 2015 (GMT -0400)
NERRS | | Change Station
CLOSE
Current Station
Personal Weather Station
Location: Portsmouth, NH
Elevation: 14 ft
Nearby Weather Stations

Elev 14 ft 43.06 °N, 70.83 °W | Updated 1 hour ago

Mostly Cloudy
Mostly Cloudy
63 °F
Feels Like 63 °F
N
6
Wind Variable Wind from NW
Gusts 0.0 mph

Today
High -- | Low -- °F
--% Chance of Precip.
Yesterday
High -- | Low -- °F
Precip. -- in
5:41 AM 7:40 PM
Waxing Gibbous, 76% visible
Pressure 29.62 in
Visibility 10.0 miles
Clouds Mostly Cloudy 8000 ft
Mostly Cloudy 25000 ft
Dew Point 32 °F
Humidity 31%
Rainfall in
Snow Depth Not available.
UV 3 out of 12
Pollen 9.90 out of 12
Air Quality Not available.
Flu Activity Regional
METAR KPSM 281958Z 32018G24KT 10SM BKN080 BKN250 17/M01 A2961 RMK AO2A PK WND 35026/25 SLP029 T01671015

More Conditions Fewer Conditions

Pressure 29.62 in
Visibility 10.0 miles
Clouds Mostly Cloudy 8000 ft
Mostly Cloudy 25000 ft
Dew Point 32 °F
Humidity 31%
Rainfall in
Snow Depth Not available.
UV 3 out of 12
Pollen 9.90 out of 12
Air Quality Not available.
Flu Activity Regional
METAR KPSM 281958Z 32018G24KT 10SM BKN080 BKN250 17/M01 A2961 RMK AO2A PK WND 35026/25 SLP029 T01671015

More Conditions Fewer Conditions

10-Day Weather Forecast

Almanac

Astronomy

Apr. 28, 2015 Rise Set
Actual Time
Civil Twilight
Nautical Twilight
Astronomical Twilight
Moon
Length of Visible Light
Length of Day
Tomorrow will be .
, % of the Moon is Illuminated

Today's Extremes

State Highs State Lows

Community

WunderPhotos

Upload Photos

1,817,749 photos uploaded!

WunderBlogs® & News

Nearby

Air Quality

  Air Quality AQ Index Pollutant
Not available.

Snow Depth

Station Depth Elevation

Earthquake Activity

City Distance Mag. Time & Date
Minimum magnitude displayed is 2.5.

Coastal Water Temperatures

Place Temperature

Stations

Nearby Weather Stations

Station Location Temp. Windchill Dew Point Humidity Wind Precip. Elev Updated Type